createdAt,value
2018-09-10T00:01:19.400Z,50.80
2018-09-10T00:06:14.345Z,51.50
2018-09-10T00:08:41.974Z,51.80
2018-09-10T00:11:09.455Z,51.60
2018-09-10T00:18:32.532Z,51.30
2018-09-10T00:23:27.570Z,51.20
2018-09-10T00:25:55.084Z,50.80
2018-09-10T00:28:22.667Z,51.10
2018-09-10T00:30:50.169Z,51.00
2018-09-10T00:33:17.967Z,50.70
2018-09-10T00:35:45.435Z,50.60
2018-09-10T00:38:13.035Z,50.90
2018-09-10T00:40:41.483Z,50.70
2018-09-10T00:43:08.999Z,50.80
2018-09-10T00:45:36.511Z,51.30
2018-09-10T00:48:04.007Z,51.30
2018-09-10T00:50:31.600Z,51.30
2018-09-10T00:55:26.812Z,51.30
2018-09-10T00:57:54.300Z,51.10
2018-09-10T01:00:21.962Z,51.20
2018-09-10T01:02:50.262Z,51.70
2018-09-10T01:05:17.906Z,52.10
2018-09-10T01:07:45.984Z,52.30
2018-09-10T01:10:13.711Z,52.60
2018-09-10T01:12:41.379Z,52.20
2018-09-10T01:15:08.847Z,51.70
2018-09-10T01:20:04.297Z,52.10
2018-09-10T01:22:31.896Z,51.90
2018-09-10T01:24:59.464Z,52.10
2018-09-10T01:27:26.976Z,52.80
2018-09-10T01:29:54.882Z,53.60
2018-09-10T01:32:22.513Z,53.60
2018-09-10T01:37:27.036Z,53.20
2018-09-10T01:39:55.721Z,53.30
2018-09-10T01:42:23.320Z,53.10
2018-09-10T01:44:50.848Z,53.40
2018-09-10T01:47:19.113Z,53.60
2018-09-10T01:49:46.862Z,53.40
2018-09-10T01:52:14.375Z,54.10
2018-09-10T01:54:43.472Z,54.00
2018-09-10T01:57:10.991Z,54.60
2018-09-10T01:59:38.490Z,54.80
2018-09-10T02:02:06.220Z,54.60
2018-09-10T02:04:33.692Z,54.40
2018-09-10T02:07:02.859Z,54.20
2018-09-10T02:09:30.464Z,53.60
2018-09-10T02:11:57.937Z,53.20
2018-09-10T02:14:25.998Z,53.50
2018-09-10T02:16:53.477Z,53.70
2018-09-10T02:19:21.141Z,53.90
2018-09-10T02:21:48.647Z,53.90
2018-09-10T02:24:16.174Z,53.50
2018-09-10T02:26:43.670Z,53.10
2018-09-10T02:29:11.968Z,53.00
2018-09-10T02:31:39.495Z,53.20
2018-09-10T02:34:06.977Z,52.90
2018-09-10T02:36:34.525Z,53.20
2018-09-10T02:39:03.693Z,53.80
2018-09-10T02:41:32.972Z,53.90
2018-09-10T02:46:27.863Z,54.00
2018-09-10T02:48:56.311Z,54.30
2018-09-10T02:51:24.929Z,54.20
2018-09-10T02:53:52.445Z,54.40
2018-09-10T02:58:47.502Z,53.80
2018-09-10T03:01:15.173Z,54.30
2018-09-10T03:03:46.043Z,53.40
2018-09-10T03:06:15.286Z,54.00
2018-09-10T03:08:44.509Z,54.00
2018-09-10T03:11:12.013Z,54.40
2018-09-10T03:13:39.617Z,54.60
2018-09-10T03:16:08.883Z,55.00
2018-09-10T03:18:37.020Z,55.80
2018-09-10T03:21:04.498Z,55.40
2018-09-10T03:23:32.071Z,56.10
2018-09-10T03:25:59.557Z,55.90
2018-09-10T03:28:27.119Z,55.50
2018-09-10T03:30:54.723Z,55.50
2018-09-10T03:37:42.365Z,55.30
2018-09-10T03:40:09.837Z,55.20
2018-09-10T03:42:37.452Z,55.20
2018-09-10T03:45:05.025Z,55.60
2018-09-10T03:47:32.525Z,56.00
2018-09-10T03:50:00.007Z,56.20
2018-09-10T03:52:27.518Z,56.30
2018-09-10T03:54:55.024Z,56.20
2018-09-10T03:57:22.680Z,56.20
2018-09-10T03:59:50.130Z,56.20
2018-09-10T04:02:19.635Z,55.90
2018-09-10T04:04:47.200Z,55.80
2018-09-10T04:07:14.749Z,56.10
2018-09-10T04:09:43.345Z,56.80
2018-09-10T04:12:10.891Z,56.70
2018-09-10T04:14:38.497Z,56.60
2018-09-10T04:17:06.071Z,56.30
2018-09-10T04:19:33.754Z,56.70
2018-09-10T04:22:01.959Z,57.20
2018-09-10T04:24:29.571Z,56.90
2018-09-10T04:26:57.147Z,57.80
2018-09-10T04:29:24.612Z,57.70
2018-09-10T04:31:52.361Z,57.80
2018-09-10T04:34:19.904Z,58.50
2018-09-10T04:36:48.082Z,58.40
2018-09-10T04:39:15.545Z,58.40
2018-09-10T04:41:43.652Z,58.60
2018-09-10T04:44:11.163Z,57.90
2018-09-10T04:46:39.357Z,57.90
2018-09-10T04:49:08.311Z,57.70
2018-09-10T04:54:03.767Z,56.90
2018-09-10T04:56:31.404Z,56.60
2018-09-10T04:58:59.776Z,57.10
2018-09-10T05:01:27.257Z,57.10
2018-09-10T05:03:55.401Z,57.50
2018-09-10T05:06:22.922Z,57.40
2018-09-10T05:08:51.282Z,57.30
2018-09-10T05:11:19.402Z,58.00
2018-09-10T05:13:46.970Z,57.60
2018-09-10T05:16:14.637Z,57.40
2018-09-10T05:18:42.764Z,58.20
2018-09-10T05:21:10.996Z,57.90
2018-09-10T05:23:38.497Z,57.50
2018-09-10T05:28:34.550Z,57.30
2018-09-10T05:31:02.611Z,57.30
2018-09-10T05:33:30.120Z,57.10
2018-09-10T05:35:57.622Z,57.10
2018-09-10T05:38:25.094Z,57.80
2018-09-10T05:40:53.489Z,58.10
2018-09-10T05:43:21.092Z,58.10
2018-09-10T05:45:48.564Z,58.10
2018-09-10T05:48:16.168Z,58.10
2018-09-10T05:50:43.900Z,58.20
2018-09-10T05:53:11.414Z,57.60
2018-09-10T05:55:39.573Z,57.10
2018-09-10T05:58:07.014Z,57.10
2018-09-10T06:00:34.554Z,57.50
2018-09-10T06:03:02.245Z,57.40
2018-09-10T06:05:29.752Z,57.00
2018-09-10T06:07:57.292Z,57.00
2018-09-10T06:12:52.990Z,56.50
2018-09-10T06:15:21.461Z,56.90
2018-09-10T06:17:48.953Z,57.10
2018-09-10T06:20:16.495Z,56.60
2018-09-10T06:22:44.042Z,56.00
2018-09-10T06:25:11.583Z,55.40
2018-09-10T06:30:07.772Z,55.20
2018-09-10T06:32:35.743Z,55.20
2018-09-10T06:35:03.590Z,55.30
2018-09-10T06:38:55.781Z,55.10
2018-09-10T06:41:24.261Z,54.50
2018-09-10T06:43:52.159Z,55.30
2018-09-10T06:46:20.244Z,55.50
2018-09-10T06:48:49.094Z,55.60
2018-09-10T06:53:46.956Z,55.20
2018-09-10T06:58:42.165Z,55.60
2018-09-10T07:01:10.425Z,55.60
2018-09-10T07:03:39.004Z,55.40
2018-09-10T07:06:06.647Z,55.10
2018-09-10T07:08:39.427Z,54.80
2018-09-10T07:13:35.560Z,55.60
2018-09-10T07:16:03.920Z,55.60
2018-09-10T07:18:32.645Z,55.60
2018-09-10T07:21:03.553Z,54.90
2018-09-10T07:23:33.731Z,55.60
2018-09-10T07:35:58.080Z,54.80
2018-09-10T07:38:27.089Z,53.60
2018-09-10T07:40:55.059Z,53.40
2018-09-10T07:43:22.921Z,53.90
2018-09-10T07:48:19.373Z,53.40
2018-09-10T07:50:53.220Z,53.10
2018-09-10T07:55:50.432Z,53.00
2018-09-10T07:58:18.145Z,52.40
2018-09-10T08:03:14.310Z,51.50
2018-09-10T08:08:09.743Z,49.80
2018-09-10T08:13:05.854Z,48.40
2018-09-10T08:15:33.579Z,48.30
2018-09-10T08:18:01.438Z,48.60
2018-09-10T08:20:28.980Z,48.20
2018-09-10T08:22:57.198Z,48.80
2018-09-10T08:27:52.638Z,47.40
2018-09-10T08:30:20.472Z,47.80
2018-09-10T08:32:48.281Z,48.80
2018-09-10T08:35:16.672Z,48.40
2018-09-10T08:37:44.597Z,48.10
2018-09-10T08:40:13.007Z,49.00
2018-09-10T08:42:41.556Z,48.60
2018-09-10T08:45:09.341Z,48.30
2018-09-10T08:47:37.254Z,47.50
2018-09-10T08:57:28.374Z,46.50
2018-09-10T08:59:56.125Z,46.00
2018-09-10T09:02:23.839Z,46.00
2018-09-10T09:07:19.269Z,45.60
2018-09-10T09:09:46.967Z,46.40
2018-09-10T09:14:43.072Z,46.80
2018-09-10T09:17:10.597Z,47.00
2018-09-10T09:22:06.339Z,47.60
2018-09-10T09:24:34.378Z,47.40
2018-09-10T09:27:02.113Z,47.70
2018-09-10T09:29:31.504Z,47.50
2018-09-10T09:31:59.027Z,47.30
2018-09-10T09:34:31.355Z,47.90
2018-09-10T09:37:05.273Z,47.70
2018-09-10T09:40:41.799Z,47.30
2018-09-10T09:43:15.272Z,47.80
2018-09-10T09:48:16.090Z,47.30
2018-09-10T09:50:43.783Z,46.80
2018-09-10T09:53:11.425Z,47.40
2018-09-10T09:55:40.247Z,47.40
2018-09-10T10:03:14.883Z,47.70
2018-09-10T10:08:10.544Z,47.70
2018-09-10T10:10:39.462Z,48.00
2018-09-10T10:13:07.651Z,47.90
2018-09-10T10:15:35.664Z,47.70
2018-09-10T10:20:32.263Z,47.60
2018-09-10T10:23:00.318Z,47.20
2018-09-10T10:25:28.044Z,46.10
2018-09-10T10:27:55.584Z,47.40
2018-09-10T10:30:23.072Z,47.00
2018-09-10T10:32:50.810Z,47.40
2018-09-10T10:35:18.383Z,46.30
2018-09-10T10:37:45.945Z,44.80
2018-09-10T10:40:13.585Z,44.20
2018-09-10T10:42:41.601Z,43.80
2018-09-10T10:45:09.110Z,43.30
2018-09-10T10:47:36.638Z,41.10
2018-09-10T10:50:04.483Z,41.00
2018-09-10T10:52:32.072Z,40.10
2018-09-10T10:54:59.952Z,38.50
2018-09-10T10:57:29.537Z,38.60
2018-09-10T10:59:57.020Z,37.30
2018-09-10T11:02:24.926Z,37.50
2018-09-10T11:04:53.530Z,37.00
2018-09-10T11:07:21.086Z,36.90
2018-09-10T11:09:48.625Z,36.70
2018-09-10T11:12:16.642Z,35.90
2018-09-10T11:14:44.149Z,36.20
2018-09-10T11:17:11.737Z,35.60
2018-09-10T11:19:39.797Z,35.40
2018-09-10T11:22:07.384Z,35.40
2018-09-10T11:24:36.148Z,35.10
2018-09-10T11:27:03.667Z,35.00
2018-09-10T11:29:32.131Z,34.40
2018-09-10T11:31:59.838Z,34.70
2018-09-10T11:36:55.028Z,34.50
2018-09-10T11:39:22.495Z,34.50
2018-09-10T11:41:50.037Z,33.70
2018-09-10T11:44:17.557Z,34.50
2018-09-10T11:46:45.096Z,34.50
2018-09-10T11:49:12.717Z,34.50
2018-09-10T11:51:40.190Z,34.60
2018-09-10T11:54:07.699Z,34.60
2018-09-10T11:56:35.193Z,33.70
2018-09-10T11:59:02.764Z,33.70
2018-09-10T12:01:30.514Z,33.50
2018-09-10T12:03:57.995Z,33.80
2018-09-10T12:06:25.555Z,33.90
2018-09-10T12:08:53.181Z,33.90
2018-09-10T12:11:21.028Z,33.80
2018-09-10T12:13:48.940Z,34.40
2018-09-10T12:16:16.456Z,34.40
2018-09-10T12:18:44.061Z,34.50
2018-09-10T12:21:11.604Z,34.60
2018-09-10T12:23:39.165Z,34.50
2018-09-10T12:28:34.461Z,34.60
2018-09-10T12:31:02.226Z,34.60
2018-09-10T12:35:57.485Z,34.50
2018-09-10T12:38:25.032Z,34.50
2018-09-10T12:40:52.556Z,35.00
2018-09-10T12:43:20.489Z,35.20
2018-09-10T12:45:48.873Z,35.30
2018-09-10T12:48:16.467Z,34.50
2018-09-10T12:50:43.950Z,34.40
2018-09-10T12:53:12.064Z,34.80
2018-09-10T12:55:39.570Z,35.60
2018-09-10T12:58:07.071Z,35.80
2018-09-10T13:00:34.589Z,35.50
2018-09-10T13:03:02.481Z,35.40
2018-09-10T13:05:30.281Z,36.30
2018-09-10T13:07:58.304Z,36.70
2018-09-10T13:10:26.051Z,36.60
2018-09-10T13:12:53.915Z,36.50
2018-09-10T13:15:21.444Z,36.30
2018-09-10T13:17:49.136Z,36.40
2018-09-10T13:20:16.753Z,35.90
2018-09-10T13:22:44.809Z,35.90
2018-09-10T13:25:12.349Z,35.70
2018-09-10T13:27:39.822Z,36.00
2018-09-10T13:30:07.352Z,36.40
2018-09-10T13:32:34.883Z,36.50
2018-09-10T13:35:02.402Z,37.10
2018-09-10T13:37:30.793Z,37.80
2018-09-10T13:39:58.304Z,37.40
2018-09-10T13:42:26.624Z,37.70
2018-09-10T13:47:22.243Z,37.80
2018-09-10T13:52:17.733Z,37.80
2018-09-10T13:54:45.259Z,37.90
2018-09-10T13:57:12.831Z,37.70
2018-09-10T13:59:40.577Z,37.70
2018-09-10T14:02:08.045Z,38.20
2018-09-10T14:04:35.632Z,38.00
2018-09-10T14:07:03.249Z,38.30
2018-09-10T14:09:30.861Z,38.10
2018-09-10T14:11:58.385Z,37.90
2018-09-10T14:16:53.286Z,37.80
2018-09-10T14:19:20.877Z,37.90
2018-09-10T14:21:48.610Z,37.90
2018-09-10T14:24:16.187Z,37.10
2018-09-10T14:26:43.720Z,37.30
2018-09-10T14:29:11.212Z,37.10
2018-09-10T14:31:38.848Z,37.70
2018-09-10T14:34:06.467Z,37.60
2018-09-10T14:36:45.040Z,36.90
2018-09-10T14:39:12.762Z,36.30
2018-09-10T14:41:42.997Z,36.90
2018-09-10T14:44:10.589Z,36.70
2018-09-10T14:49:06.369Z,36.90
2018-09-10T14:51:33.968Z,37.00
2018-09-10T14:54:02.467Z,37.10
2018-09-10T14:56:30.389Z,37.90
2018-09-10T14:58:57.942Z,37.90
2018-09-10T15:01:25.795Z,39.00
2018-09-10T15:03:53.579Z,38.60
2018-09-10T15:06:21.598Z,39.50
2018-09-10T15:10:13.716Z,39.50
2018-09-10T15:12:41.252Z,39.30
2018-09-10T15:24:59.081Z,39.00
2018-09-10T15:27:26.719Z,39.70
2018-09-10T15:34:49.452Z,40.00
2018-09-10T15:37:17.223Z,40.30
2018-09-10T15:39:44.936Z,40.00
2018-09-10T15:42:12.470Z,40.30
2018-09-10T15:44:40.119Z,41.50
2018-09-10T15:47:07.640Z,41.20
2018-09-10T15:49:35.226Z,41.50
2018-09-10T15:56:58.595Z,40.30
2018-09-10T15:59:26.267Z,40.40
2018-09-10T16:01:54.150Z,40.40
2018-09-10T16:04:21.687Z,39.50
2018-09-10T16:06:49.267Z,40.70
2018-09-10T16:09:17.069Z,39.70
2018-09-10T16:14:13.504Z,39.90
2018-09-10T16:21:36.699Z,39.80
2018-09-10T16:26:32.232Z,39.90
2018-09-10T16:48:42.146Z,42.50
2018-09-10T16:51:09.826Z,42.10
2018-09-10T16:53:37.759Z,42.60
2018-09-10T16:56:06.444Z,42.50
2018-09-10T17:03:29.499Z,42.50
2018-09-10T17:05:57.153Z,42.40
2018-09-10T17:08:24.798Z,42.60
2018-09-10T17:13:20.123Z,43.40
2018-09-10T17:25:38.547Z,44.80
2018-09-10T17:33:01.458Z,44.80
2018-09-10T17:35:29.311Z,44.60
2018-09-10T17:45:20.945Z,44.50
2018-09-10T17:47:48.464Z,44.90
2018-09-10T17:50:16.052Z,45.10
2018-09-10T17:52:43.653Z,45.20
2018-09-10T18:00:06.465Z,44.90
2018-09-10T18:05:01.607Z,44.70
2018-09-10T18:07:29.202Z,44.70
2018-09-10T18:09:56.734Z,44.60
2018-09-10T18:12:24.271Z,44.60
2018-09-10T18:14:52.096Z,44.90
2018-09-10T18:17:19.619Z,44.70
2018-09-10T18:19:47.273Z,44.80
2018-09-10T18:22:14.855Z,44.80
2018-09-10T18:24:42.390Z,44.90
2018-09-10T18:27:09.907Z,45.00
2018-09-10T18:29:37.483Z,45.00
2018-09-10T18:32:05.071Z,45.00
2018-09-10T18:34:32.574Z,45.10
2018-09-10T18:37:00.242Z,45.20
2018-09-10T18:39:27.783Z,45.30
2018-09-10T18:41:55.360Z,45.40
2018-09-10T18:46:50.323Z,45.50
2018-09-10T18:49:17.804Z,45.70
2018-09-10T18:51:45.424Z,45.90
2018-09-10T18:54:12.947Z,45.90
2018-09-10T18:56:40.566Z,46.10
2018-09-10T18:59:08.714Z,46.20
2018-09-10T19:01:36.390Z,46.40
2018-09-10T19:04:03.938Z,46.50
2018-09-10T19:06:31.921Z,46.60
2018-09-10T19:13:55.573Z,47.30
2018-09-10T19:21:19.379Z,47.60
2018-09-10T19:23:46.978Z,47.50
2018-09-10T19:26:14.497Z,47.80
2018-09-10T19:28:43.824Z,48.10
2018-09-10T19:31:11.730Z,52.90
2018-09-10T19:38:34.729Z,47.70
2018-09-10T19:41:03.463Z,47.60
2018-09-10T19:43:31.412Z,47.70
2018-09-10T19:48:26.463Z,50.80
2018-09-10T19:50:54.100Z,50.10
2018-09-10T19:53:22.581Z,52.50
2018-09-10T19:58:18.069Z,48.60
2018-09-10T20:05:40.981Z,49.20
2018-09-10T20:08:08.756Z,49.40
2018-09-10T20:10:36.575Z,49.50
2018-09-10T20:13:04.254Z,50.10
2018-09-10T20:15:31.869Z,49.60
2018-09-10T20:17:59.421Z,49.80
2018-09-10T20:20:27.129Z,50.20
2018-09-10T20:25:22.131Z,50.30
2018-09-10T20:27:49.723Z,50.50
2018-09-10T20:30:17.289Z,50.60
2018-09-10T20:32:44.869Z,51.00
2018-09-10T20:35:12.529Z,50.90
2018-09-10T20:37:40.929Z,50.90
2018-09-10T20:40:09.284Z,51.00
2018-09-10T20:42:37.258Z,50.90
2018-09-10T20:45:05.404Z,50.90
2018-09-10T20:47:33.384Z,50.90
2018-09-10T20:52:29.724Z,51.20
2018-09-10T20:54:57.352Z,51.00
2018-09-10T20:57:24.922Z,51.10
2018-09-10T21:02:20.249Z,51.00
2018-09-10T21:04:47.891Z,51.50
2018-09-10T21:07:16.697Z,51.60
2018-09-10T21:09:44.322Z,51.50
2018-09-10T21:12:12.041Z,51.80
2018-09-10T21:17:07.101Z,50.90
2018-09-10T21:19:35.506Z,51.50
2018-09-10T21:22:03.379Z,51.60
2018-09-10T21:24:31.090Z,51.70
2018-09-10T21:26:58.669Z,52.10
2018-09-10T21:29:26.313Z,52.20
2018-09-10T21:31:53.808Z,52.20
2018-09-10T21:34:21.323Z,52.40
2018-09-10T21:39:17.048Z,52.10
2018-09-10T21:41:44.661Z,52.30
2018-09-10T21:44:12.336Z,52.50
2018-09-10T21:46:39.916Z,52.20
2018-09-10T21:51:34.985Z,52.20
2018-09-10T21:54:02.532Z,52.60
2018-09-10T21:56:30.145Z,52.40
2018-09-10T21:58:57.732Z,52.70
2018-09-10T22:01:25.305Z,52.20
2018-09-10T22:03:52.888Z,52.70
2018-09-10T22:06:20.502Z,52.30
2018-09-10T22:08:48.187Z,52.70
2018-09-10T22:13:43.252Z,52.80
2018-09-10T22:16:10.808Z,52.80
2018-09-10T22:18:38.407Z,53.00
2018-09-10T22:26:00.835Z,68.20
2018-09-10T22:43:13.048Z,68.30
2018-09-10T22:45:40.611Z,73.20
2018-09-10T22:48:08.185Z,72.60
2018-09-10T22:53:04.633Z,81.20
2018-09-10T22:55:32.609Z,74.90
2018-09-10T22:58:00.204Z,75.60
2018-09-10T23:10:17.513Z,67.50
2018-09-10T23:15:12.488Z,58.80
2018-09-10T23:17:40.016Z,56.80
2018-09-10T23:20:07.796Z,60.00
2018-09-10T23:22:35.466Z,63.50
2018-09-10T23:25:03.065Z,69.80
2018-09-10T23:27:30.543Z,71.10
2018-09-10T23:29:58.063Z,70.60
2018-09-10T23:34:52.991Z,62.80
2018-09-10T23:37:20.520Z,69.00
2018-09-10T23:39:48.053Z,69.00
2018-09-10T23:42:15.543Z,67.10
2018-09-10T23:44:43.093Z,63.10
2018-09-10T23:49:38.021Z,72.40
2018-09-10T23:52:05.856Z,71.60
2018-09-10T23:54:33.408Z,71.00
2018-09-10T23:57:00.951Z,67.30
2018-09-10T23:59:28.555Z,69.90
